<?xml version="1.0" encoding="UTF-8" standalone="no" ?>
<gpx xmlns="http://www.topografix.com/GPX/1/1" xmlns:xsi="http://www.w3.org/2001/XMLSchema-instance" xsi:schemaLocation="http://www.topografix.com/GPX/1/1 http://www.topografix.com/GPX/1/1/gpx.xsd" version="1.1" creator="VisuGPX - https://www.visugpx.com">
  <metadata>
    <name>Greolières - Cipières</name>
    <desc><![CDATA[Sentiers en VTT entre Greolières et Cipières]]></desc>
  </metadata>
  <trk>
    <name><![CDATA[Track 001]]></name>
    <trkseg>
      <trkpt lat="43.79627" lon="6.94715">
        <ele>814.9</ele>
        <time>2009-05-01T10:37:24Z</time>
      </trkpt>
      <trkpt lat="43.79643" lon="6.9474">
        <ele>814.4</ele>
        <time>2009-05-01T10:38:37Z</time>
      </trkpt>
      <trkpt lat="43.79653" lon="6.94778">
        <ele>810.5</ele>
        <time>2009-05-01T10:38:49Z</time>
      </trkpt>
      <trkpt lat="43.79666" lon="6.94787">
        <ele>810.5</ele>
        <time>2009-05-01T10:39:07Z</time>
      </trkpt>
      <trkpt lat="43.7966" lon="6.94752">
        <ele>815.3</ele>
        <time>2009-05-01T10:39:19Z</time>
      </trkpt>
      <trkpt lat="43.79652" lon="6.94713">
        <ele>816.3</ele>
        <time>2009-05-01T10:39:32Z</time>
      </trkpt>
      <trkpt lat="43.79641" lon="6.94673">
        <ele>820.1</ele>
        <time>2009-05-01T10:39:44Z</time>
      </trkpt>
      <trkpt lat="43.79628" lon="6.94638">
        <ele>823.5</ele>
        <time>2009-05-01T10:39:56Z</time>
      </trkpt>
      <trkpt lat="43.79609" lon="6.94597">
        <ele>824</ele>
        <time>2009-05-01T10:40:11Z</time>
      </trkpt>
      <trkpt lat="43.79589" lon="6.94566">
        <ele>820.6</ele>
        <time>2009-05-01T10:40:25Z</time>
      </trkpt>
      <trkpt lat="43.79568" lon="6.94537">
        <ele>821.1</ele>
        <time>2009-05-01T10:40:39Z</time>
      </trkpt>
      <trkpt lat="43.79555" lon="6.94501">
        <ele>825.9</ele>
        <time>2009-05-01T10:40:53Z</time>
      </trkpt>
      <trkpt lat="43.79549" lon="6.94464">
        <ele>835</ele>
        <time>2009-05-01T10:41:08Z</time>
      </trkpt>
      <trkpt lat="43.79544" lon="6.94426">
        <ele>838.9</ele>
        <time>2009-05-01T10:41:21Z</time>
      </trkpt>
      <trkpt lat="43.79544" lon="6.94387">
        <ele>839.4</ele>
        <time>2009-05-01T10:41:34Z</time>
      </trkpt>
      <trkpt lat="43.79545" lon="6.94349">
        <ele>842.7</ele>
        <time>2009-05-01T10:41:47Z</time>
      </trkpt>
      <trkpt lat="43.79554" lon="6.94311">
        <ele>846.6</ele>
        <time>2009-05-01T10:42:04Z</time>
      </trkpt>
      <trkpt lat="43.79545" lon="6.94344">
        <ele>849</ele>
        <time>2009-05-01T10:42:15Z</time>
      </trkpt>
      <trkpt lat="43.79543" lon="6.94383">
        <ele>847.1</ele>
        <time>2009-05-01T10:42:21Z</time>
      </trkpt>
      <trkpt lat="43.79546" lon="6.94424">
        <ele>845.1</ele>
        <time>2009-05-01T10:42:26Z</time>
      </trkpt>
      <trkpt lat="43.79551" lon="6.94466">
        <ele>842.7</ele>
        <time>2009-05-01T10:42:30Z</time>
      </trkpt>
      <trkpt lat="43.79536" lon="6.94509">
        <ele>835.5</ele>
        <time>2009-05-01T10:42:34Z</time>
      </trkpt>
      <trkpt lat="43.79535" lon="6.94551">
        <ele>829.8</ele>
        <time>2009-05-01T10:42:37Z</time>
      </trkpt>
      <trkpt lat="43.79529" lon="6.94588">
        <ele>820.1</ele>
        <time>2009-05-01T10:42:40Z</time>
      </trkpt>
      <trkpt lat="43.79505" lon="6.94625">
        <ele>812.9</ele>
        <time>2009-05-01T10:42:43Z</time>
      </trkpt>
      <trkpt lat="43.79478" lon="6.94665">
        <ele>809.1</ele>
        <time>2009-05-01T10:42:46Z</time>
      </trkpt>
      <trkpt lat="43.79453" lon="6.94706">
        <ele>804.3</ele>
        <time>2009-05-01T10:42:49Z</time>
      </trkpt>
      <trkpt lat="43.79432" lon="6.94742">
        <ele>802.4</ele>
        <time>2009-05-01T10:42:52Z</time>
      </trkpt>
      <trkpt lat="43.79429" lon="6.94777">
        <ele>798.5</ele>
        <time>2009-05-01T10:42:55Z</time>
      </trkpt>
      <trkpt lat="43.79431" lon="6.94818">
        <ele>795.1</ele>
        <time>2009-05-01T10:42:59Z</time>
      </trkpt>
      <trkpt lat="43.79438" lon="6.94863">
        <ele>792.3</ele>
        <time>2009-05-01T10:43:04Z</time>
      </trkpt>
      <trkpt lat="43.79443" lon="6.94904">
        <ele>790.3</ele>
        <time>2009-05-01T10:43:08Z</time>
      </trkpt>
      <trkpt lat="43.79447" lon="6.94949">
        <ele>787.9</ele>
        <time>2009-05-01T10:43:13Z</time>
      </trkpt>
      <trkpt lat="43.79443" lon="6.94988">
        <ele>786.5</ele>
        <time>2009-05-01T10:43:17Z</time>
      </trkpt>
      <trkpt lat="43.79437" lon="6.95029">
        <ele>784.1</ele>
        <time>2009-05-01T10:43:22Z</time>
      </trkpt>
      <trkpt lat="43.79431" lon="6.95069">
        <ele>778.8</ele>
        <time>2009-05-01T10:43:27Z</time>
      </trkpt>
      <trkpt lat="43.79426" lon="6.95112">
        <ele>774</ele>
        <time>2009-05-01T10:43:33Z</time>
      </trkpt>
      <trkpt lat="43.79435" lon="6.95151">
        <ele>766.3</ele>
        <time>2009-05-01T10:43:39Z</time>
      </trkpt>
      <trkpt lat="43.79448" lon="6.95191">
        <ele>762.5</ele>
        <time>2009-05-01T10:43:44Z</time>
      </trkpt>
      <trkpt lat="43.79454" lon="6.95232">
        <ele>757.7</ele>
        <time>2009-05-01T10:43:49Z</time>
      </trkpt>
      <trkpt lat="43.79439" lon="6.95247">
        <ele>754.3</ele>
        <time>2009-05-01T10:43:57Z</time>
      </trkpt>
      <trkpt lat="43.79423" lon="6.95207">
        <ele>750.9</ele>
        <time>2009-05-01T10:44:04Z</time>
      </trkpt>
      <trkpt lat="43.79403" lon="6.95176">
        <ele>747.1</ele>
        <time>2009-05-01T10:44:11Z</time>
      </trkpt>
      <trkpt lat="43.79385" lon="6.95204">
        <ele>746.6</ele>
        <time>2009-05-01T10:44:19Z</time>
      </trkpt>
      <trkpt lat="43.79379" lon="6.95248">
        <ele>743.7</ele>
        <time>2009-05-01T10:44:28Z</time>
      </trkpt>
      <trkpt lat="43.79374" lon="6.9521">
        <ele>738.4</ele>
        <time>2009-05-01T10:44:40Z</time>
      </trkpt>
      <trkpt lat="43.79375" lon="6.95174">
        <ele>736.5</ele>
        <time>2009-05-01T10:44:49Z</time>
      </trkpt>
      <trkpt lat="43.79368" lon="6.95134">
        <ele>734.1</ele>
        <time>2009-05-01T10:45:00Z</time>
      </trkpt>
      <trkpt lat="43.79361" lon="6.95091">
        <ele>732.2</ele>
        <time>2009-05-01T10:45:08Z</time>
      </trkpt>
      <trkpt lat="43.79356" lon="6.95049">
        <ele>728.8</ele>
        <time>2009-05-01T10:45:16Z</time>
      </trkpt>
      <trkpt lat="43.79354" lon="6.95006">
        <ele>725.5</ele>
        <time>2009-05-01T10:45:24Z</time>
      </trkpt>
      <trkpt lat="43.79353" lon="6.94964">
        <ele>719.7</ele>
        <time>2009-05-01T10:45:31Z</time>
      </trkpt>
      <trkpt lat="43.7935" lon="6.94922">
        <ele>717.8</ele>
        <time>2009-05-01T10:45:39Z</time>
      </trkpt>
      <trkpt lat="43.79334" lon="6.94883">
        <ele>713.9</ele>
        <time>2009-05-01T10:45:48Z</time>
      </trkpt>
      <trkpt lat="43.79313" lon="6.94847">
        <ele>715.8</ele>
        <time>2009-05-01T10:45:57Z</time>
      </trkpt>
      <trkpt lat="43.79302" lon="6.94805">
        <ele>716.3</ele>
        <time>2009-05-01T10:46:06Z</time>
      </trkpt>
      <trkpt lat="43.79304" lon="6.94766">
        <ele>716.3</ele>
        <time>2009-05-01T10:46:14Z</time>
      </trkpt>
      <trkpt lat="43.79314" lon="6.94733">
        <ele>719.2</ele>
        <time>2009-05-01T10:46:22Z</time>
      </trkpt>
      <trkpt lat="43.7932" lon="6.94697">
        <ele>719.7</ele>
        <time>2009-05-01T10:46:31Z</time>
      </trkpt>
      <trkpt lat="43.793" lon="6.94661">
        <ele>724.5</ele>
        <time>2009-05-01T10:46:38Z</time>
      </trkpt>
      <trkpt lat="43.79293" lon="6.94624">
        <ele>731.2</ele>
        <time>2009-05-01T10:47:11Z</time>
      </trkpt>
      <trkpt lat="43.79299" lon="6.94585">
        <ele>733.1</ele>
        <time>2009-05-01T10:47:24Z</time>
      </trkpt>
      <trkpt lat="43.7931" lon="6.94548">
        <ele>733.6</ele>
        <time>2009-05-01T10:47:37Z</time>
      </trkpt>
      <trkpt lat="43.7931" lon="6.94507">
        <ele>734.1</ele>
        <time>2009-05-01T10:47:47Z</time>
      </trkpt>
      <trkpt lat="43.79314" lon="6.94467">
        <ele>732.7</ele>
        <time>2009-05-01T10:47:56Z</time>
      </trkpt>
      <trkpt lat="43.79324" lon="6.94429">
        <ele>729.3</ele>
        <time>2009-05-01T10:48:04Z</time>
      </trkpt>
      <trkpt lat="43.79315" lon="6.94386">
        <ele>729.8</ele>
        <time>2009-05-01T10:48:14Z</time>
      </trkpt>
      <trkpt lat="43.79309" lon="6.94349">
        <ele>727.9</ele>
        <time>2009-05-01T10:48:24Z</time>
      </trkpt>
      <trkpt lat="43.79317" lon="6.94305">
        <ele>730.7</ele>
        <time>2009-05-01T10:49:36Z</time>
      </trkpt>
      <trkpt lat="43.79302" lon="6.9435">
        <ele>735.5</ele>
        <time>2009-05-01T10:50:19Z</time>
      </trkpt>
      <trkpt lat="43.79305" lon="6.94357">
        <ele>731.2</ele>
        <time>2009-05-01T10:50:40Z</time>
      </trkpt>
      <trkpt lat="43.79297" lon="6.94353">
        <ele>725.5</ele>
        <time>2009-05-01T10:51:05Z</time>
      </trkpt>
      <trkpt lat="43.79268" lon="6.94368">
        <ele>718.2</ele>
        <time>2009-05-01T10:51:23Z</time>
      </trkpt>
      <trkpt lat="43.79248" lon="6.94391">
        <ele>714.9</ele>
        <time>2009-05-01T10:51:31Z</time>
      </trkpt>
      <trkpt lat="43.79233" lon="6.94431">
        <ele>711.5</ele>
        <time>2009-05-01T10:51:38Z</time>
      </trkpt>
      <trkpt lat="43.79229" lon="6.94477">
        <ele>704.8</ele>
        <time>2009-05-01T10:51:45Z</time>
      </trkpt>
      <trkpt lat="43.79217" lon="6.94522">
        <ele>700.5</ele>
        <time>2009-05-01T10:51:49Z</time>
      </trkpt>
      <trkpt lat="43.79205" lon="6.94565">
        <ele>697.1</ele>
        <time>2009-05-01T10:51:53Z</time>
      </trkpt>
      <trkpt lat="43.79185" lon="6.94591">
        <ele>691.8</ele>
        <time>2009-05-01T10:51:58Z</time>
      </trkpt>
      <trkpt lat="43.79165" lon="6.94596">
        <ele>680.8</ele>
        <time>2009-05-01T10:52:08Z</time>
      </trkpt>
      <trkpt lat="43.79129" lon="6.94601">
        <ele>673.1</ele>
        <time>2009-05-01T10:52:19Z</time>
      </trkpt>
      <trkpt lat="43.79113" lon="6.94635">
        <ele>668.3</ele>
        <time>2009-05-01T10:52:28Z</time>
      </trkpt>
      <trkpt lat="43.79094" lon="6.94649">
        <ele>660.6</ele>
        <time>2009-05-01T10:52:39Z</time>
      </trkpt>
      <trkpt lat="43.79082" lon="6.94657">
        <ele>641.3</ele>
        <time>2009-05-01T10:53:07Z</time>
      </trkpt>
      <trkpt lat="43.79063" lon="6.94651">
        <ele>640.4</ele>
        <time>2009-05-01T10:53:51Z</time>
      </trkpt>
      <trkpt lat="43.79036" lon="6.94653">
        <ele>633.2</ele>
        <time>2009-05-01T10:54:13Z</time>
      </trkpt>
      <trkpt lat="43.79022" lon="6.94691">
        <ele>626.4</ele>
        <time>2009-05-01T10:54:29Z</time>
      </trkpt>
      <trkpt lat="43.7903" lon="6.94737">
        <ele>619.2</ele>
        <time>2009-05-01T10:54:35Z</time>
      </trkpt>
      <trkpt lat="43.79028" lon="6.94775">
        <ele>614.9</ele>
        <time>2009-05-01T10:54:43Z</time>
      </trkpt>
      <trkpt lat="43.79013" lon="6.94814">
        <ele>614.4</ele>
        <time>2009-05-01T10:54:54Z</time>
      </trkpt>
      <trkpt lat="43.79006" lon="6.94859">
        <ele>608.7</ele>
        <time>2009-05-01T10:55:04Z</time>
      </trkpt>
      <trkpt lat="43.78996" lon="6.94843">
        <ele>603.8</ele>
        <time>2009-05-01T10:55:17Z</time>
      </trkpt>
      <trkpt lat="43.78982" lon="6.9486">
        <ele>601</ele>
        <time>2009-05-01T10:55:26Z</time>
      </trkpt>
      <trkpt lat="43.78973" lon="6.94905">
        <ele>596.6</ele>
        <time>2009-05-01T10:55:30Z</time>
      </trkpt>
      <trkpt lat="43.78955" lon="6.94909">
        <ele>593.3</ele>
        <time>2009-05-01T10:55:37Z</time>
      </trkpt>
      <trkpt lat="43.78949" lon="6.94866">
        <ele>590.4</ele>
        <time>2009-05-01T10:55:41Z</time>
      </trkpt>
      <trkpt lat="43.78944" lon="6.94867">
        <ele>585.1</ele>
        <time>2009-05-01T10:55:49Z</time>
      </trkpt>
      <trkpt lat="43.7894" lon="6.94903">
        <ele>580.8</ele>
        <time>2009-05-01T10:56:00Z</time>
      </trkpt>
      <trkpt lat="43.78917" lon="6.94889">
        <ele>579.3</ele>
        <time>2009-05-01T10:56:11Z</time>
      </trkpt>
      <trkpt lat="43.78908" lon="6.94881">
        <ele>577.9</ele>
        <time>2009-05-01T10:57:06Z</time>
      </trkpt>
      <trkpt lat="43.78896" lon="6.94848">
        <ele>578.9</ele>
        <time>2009-05-01T10:57:18Z</time>
      </trkpt>
      <trkpt lat="43.78898" lon="6.94808">
        <ele>580.3</ele>
        <time>2009-05-01T10:57:28Z</time>
      </trkpt>
      <trkpt lat="43.78903" lon="6.94769">
        <ele>578.9</ele>
        <time>2009-05-01T10:57:38Z</time>
      </trkpt>
      <trkpt lat="43.78906" lon="6.94727">
        <ele>578.9</ele>
        <time>2009-05-01T10:57:49Z</time>
      </trkpt>
      <trkpt lat="43.7891" lon="6.94686">
        <ele>580.3</ele>
        <time>2009-05-01T10:58:02Z</time>
      </trkpt>
      <trkpt lat="43.78896" lon="6.94675">
        <ele>584.1</ele>
        <time>2009-05-01T10:58:17Z</time>
      </trkpt>
      <trkpt lat="43.78895" lon="6.94718">
        <ele>585.1</ele>
        <time>2009-05-01T10:58:28Z</time>
      </trkpt>
      <trkpt lat="43.78891" lon="6.94757">
        <ele>584.6</ele>
        <time>2009-05-01T10:58:40Z</time>
      </trkpt>
      <trkpt lat="43.78878" lon="6.94793">
        <ele>588</ele>
        <time>2009-05-01T10:58:51Z</time>
      </trkpt>
      <trkpt lat="43.78869" lon="6.9483">
        <ele>588</ele>
        <time>2009-05-01T10:59:02Z</time>
      </trkpt>
      <trkpt lat="43.78858" lon="6.94866">
        <ele>589.4</ele>
        <time>2009-05-01T10:59:12Z</time>
      </trkpt>
      <trkpt lat="43.78843" lon="6.94897">
        <ele>591.3</ele>
        <time>2009-05-01T10:59:22Z</time>
      </trkpt>
      <trkpt lat="43.78822" lon="6.94926">
        <ele>593.8</ele>
        <time>2009-05-01T10:59:33Z</time>
      </trkpt>
      <trkpt lat="43.78809" lon="6.94958">
        <ele>597.6</ele>
        <time>2009-05-01T10:59:43Z</time>
      </trkpt>
      <trkpt lat="43.7882" lon="6.94993">
        <ele>600.5</ele>
        <time>2009-05-01T10:59:54Z</time>
      </trkpt>
      <trkpt lat="43.78803" lon="6.95026">
        <ele>602.9</ele>
        <time>2009-05-01T11:00:07Z</time>
      </trkpt>
      <trkpt lat="43.78783" lon="6.95048">
        <ele>607.2</ele>
        <time>2009-05-01T11:00:19Z</time>
      </trkpt>
      <trkpt lat="43.78784" lon="6.95088">
        <ele>611.5</ele>
        <time>2009-05-01T11:00:31Z</time>
      </trkpt>
      <trkpt lat="43.78797" lon="6.95129">
        <ele>614.4</ele>
        <time>2009-05-01T11:00:42Z</time>
      </trkpt>
      <trkpt lat="43.78812" lon="6.95163">
        <ele>614.4</ele>
        <time>2009-05-01T11:00:53Z</time>
      </trkpt>
      <trkpt lat="43.78805" lon="6.95202">
        <ele>616.8</ele>
        <time>2009-05-01T11:01:05Z</time>
      </trkpt>
      <trkpt lat="43.78788" lon="6.95231">
        <ele>619.2</ele>
        <time>2009-05-01T11:01:16Z</time>
      </trkpt>
      <trkpt lat="43.78762" lon="6.95252">
        <ele>621.1</ele>
        <time>2009-05-01T11:01:27Z</time>
      </trkpt>
      <trkpt lat="43.78738" lon="6.95273">
        <ele>622.6</ele>
        <time>2009-05-01T11:01:38Z</time>
      </trkpt>
      <trkpt lat="43.78719" lon="6.95304">
        <ele>624.5</ele>
        <time>2009-05-01T11:01:50Z</time>
      </trkpt>
      <trkpt lat="43.78702" lon="6.95343">
        <ele>624.5</ele>
        <time>2009-05-01T11:02:01Z</time>
      </trkpt>
      <trkpt lat="43.78714" lon="6.95382">
        <ele>626.4</ele>
        <time>2009-05-01T11:02:11Z</time>
      </trkpt>
      <trkpt lat="43.78728" lon="6.95417">
        <ele>624.5</ele>
        <time>2009-05-01T11:02:21Z</time>
      </trkpt>
      <trkpt lat="43.78748" lon="6.95444">
        <ele>625</ele>
        <time>2009-05-01T11:02:31Z</time>
      </trkpt>
      <trkpt lat="43.78759" lon="6.95476">
        <ele>625</ele>
        <time>2009-05-01T11:02:41Z</time>
      </trkpt>
      <trkpt lat="43.78743" lon="6.95509">
        <ele>624.5</ele>
        <time>2009-05-01T11:02:51Z</time>
      </trkpt>
      <trkpt lat="43.78718" lon="6.95523">
        <ele>626.4</ele>
        <time>2009-05-01T11:03:02Z</time>
      </trkpt>
      <trkpt lat="43.787" lon="6.95549">
        <ele>628.8</ele>
        <time>2009-05-01T11:03:14Z</time>
      </trkpt>
      <trkpt lat="43.78693" lon="6.95587">
        <ele>631.2</ele>
        <time>2009-05-01T11:03:26Z</time>
      </trkpt>
      <trkpt lat="43.78687" lon="6.95623">
        <ele>631.2</ele>
        <time>2009-05-01T11:03:37Z</time>
      </trkpt>
      <trkpt lat="43.78673" lon="6.9566">
        <ele>630.8</ele>
        <time>2009-05-01T11:03:49Z</time>
      </trkpt>
      <trkpt lat="43.7866" lon="6.95695">
        <ele>634.6</ele>
        <time>2009-05-01T11:04:01Z</time>
      </trkpt>
      <trkpt lat="43.78669" lon="6.95736">
        <ele>638</ele>
        <time>2009-05-01T11:04:13Z</time>
      </trkpt>
      <trkpt lat="43.78678" lon="6.95773">
        <ele>639.4</ele>
        <time>2009-05-01T11:04:24Z</time>
      </trkpt>
      <trkpt lat="43.78692" lon="6.95811">
        <ele>641.3</ele>
        <time>2009-05-01T11:04:35Z</time>
      </trkpt>
      <trkpt lat="43.78711" lon="6.95839">
        <ele>645.7</ele>
        <time>2009-05-01T11:04:45Z</time>
      </trkpt>
      <trkpt lat="43.78732" lon="6.95868">
        <ele>649</ele>
        <time>2009-05-01T11:04:57Z</time>
      </trkpt>
      <trkpt lat="43.78751" lon="6.95899">
        <ele>650.5</ele>
        <time>2009-05-01T11:05:09Z</time>
      </trkpt>
      <trkpt lat="43.78768" lon="6.95929">
        <ele>649.5</ele>
        <time>2009-05-01T11:05:21Z</time>
      </trkpt>
      <trkpt lat="43.78786" lon="6.95958">
        <ele>649</ele>
        <time>2009-05-01T11:05:33Z</time>
      </trkpt>
      <trkpt lat="43.78782" lon="6.95995">
        <ele>650</ele>
        <time>2009-05-01T11:05:45Z</time>
      </trkpt>
      <trkpt lat="43.78778" lon="6.96034">
        <ele>651.9</ele>
        <time>2009-05-01T11:06:32Z</time>
      </trkpt>
      <trkpt lat="43.78779" lon="6.96082">
        <ele>651.9</ele>
        <time>2009-05-01T11:06:42Z</time>
      </trkpt>
      <trkpt lat="43.78783" lon="6.96122">
        <ele>648.5</ele>
        <time>2009-05-01T11:06:55Z</time>
      </trkpt>
      <trkpt lat="43.78784" lon="6.96087">
        <ele>647.1</ele>
        <time>2009-05-01T11:08:45Z</time>
      </trkpt>
      <trkpt lat="43.78784" lon="6.96042">
        <ele>650.5</ele>
        <time>2009-05-01T11:09:25Z</time>
      </trkpt>
      <trkpt lat="43.78765" lon="6.96046">
        <ele>655.8</ele>
        <time>2009-05-01T11:09:59Z</time>
      </trkpt>
      <trkpt lat="43.78749" lon="6.9608">
        <ele>657.2</ele>
        <time>2009-05-01T11:10:13Z</time>
      </trkpt>
      <trkpt lat="43.78739" lon="6.96117">
        <ele>657.2</ele>
        <time>2009-05-01T11:10:26Z</time>
      </trkpt>
      <trkpt lat="43.78725" lon="6.96149">
        <ele>656.7</ele>
        <time>2009-05-01T11:10:38Z</time>
      </trkpt>
      <trkpt lat="43.78705" lon="6.96178">
        <ele>661.5</ele>
        <time>2009-05-01T11:10:51Z</time>
      </trkpt>
      <trkpt lat="43.78683" lon="6.96199">
        <ele>663</ele>
        <time>2009-05-01T11:11:04Z</time>
      </trkpt>
      <trkpt lat="43.78669" lon="6.96235">
        <ele>665.9</ele>
        <time>2009-05-01T11:11:17Z</time>
      </trkpt>
      <trkpt lat="43.78662" lon="6.96273">
        <ele>665.9</ele>
        <time>2009-05-01T11:11:29Z</time>
      </trkpt>
      <trkpt lat="43.78656" lon="6.96311">
        <ele>665.4</ele>
        <time>2009-05-01T11:11:41Z</time>
      </trkpt>
      <trkpt lat="43.78641" lon="6.96336">
        <ele>666.8</ele>
        <time>2009-05-01T11:11:52Z</time>
      </trkpt>
      <trkpt lat="43.78617" lon="6.96328">
        <ele>669.2</ele>
        <time>2009-05-01T11:12:03Z</time>
      </trkpt>
      <trkpt lat="43.7859" lon="6.96321">
        <ele>673.1</ele>
        <time>2009-05-01T11:12:14Z</time>
      </trkpt>
      <trkpt lat="43.78564" lon="6.96312">
        <ele>674.5</ele>
        <time>2009-05-01T11:12:25Z</time>
      </trkpt>
      <trkpt lat="43.78537" lon="6.96302">
        <ele>677.4</ele>
        <time>2009-05-01T11:12:36Z</time>
      </trkpt>
      <trkpt lat="43.78547" lon="6.96327">
        <ele>673.1</ele>
        <time>2009-05-01T11:12:52Z</time>
      </trkpt>
      <trkpt lat="43.78558" lon="6.96361">
        <ele>671.6</ele>
        <time>2009-05-01T11:13:06Z</time>
      </trkpt>
      <trkpt lat="43.78571" lon="6.96399">
        <ele>668.7</ele>
        <time>2009-05-01T11:13:19Z</time>
      </trkpt>
      <trkpt lat="43.78586" lon="6.96431">
        <ele>667.8</ele>
        <time>2009-05-01T11:13:31Z</time>
      </trkpt>
      <trkpt lat="43.78611" lon="6.96455">
        <ele>670.2</ele>
        <time>2009-05-01T11:13:53Z</time>
      </trkpt>
      <trkpt lat="43.78634" lon="6.96472">
        <ele>664.9</ele>
        <time>2009-05-01T11:14:07Z</time>
      </trkpt>
      <trkpt lat="43.78664" lon="6.9648">
        <ele>663.9</ele>
        <time>2009-05-01T11:14:20Z</time>
      </trkpt>
      <trkpt lat="43.78676" lon="6.96512">
        <ele>662.5</ele>
        <time>2009-05-01T11:14:27Z</time>
      </trkpt>
      <trkpt lat="43.78682" lon="6.96554">
        <ele>656.7</ele>
        <time>2009-05-01T11:14:40Z</time>
      </trkpt>
      <trkpt lat="43.78691" lon="6.96595">
        <ele>655.8</ele>
        <time>2009-05-01T11:14:49Z</time>
      </trkpt>
      <trkpt lat="43.78691" lon="6.96635">
        <ele>654.8</ele>
        <time>2009-05-01T11:14:57Z</time>
      </trkpt>
      <trkpt lat="43.78687" lon="6.96673">
        <ele>653.8</ele>
        <time>2009-05-01T11:15:06Z</time>
      </trkpt>
      <trkpt lat="43.78684" lon="6.96716">
        <ele>648.5</ele>
        <time>2009-05-01T11:15:15Z</time>
      </trkpt>
      <trkpt lat="43.78671" lon="6.96751">
        <ele>644.7</ele>
        <time>2009-05-01T11:15:24Z</time>
      </trkpt>
      <trkpt lat="43.7867" lon="6.96796">
        <ele>639.4</ele>
        <time>2009-05-01T11:15:45Z</time>
      </trkpt>
      <trkpt lat="43.78675" lon="6.96834">
        <ele>635.6</ele>
        <time>2009-05-01T11:15:58Z</time>
      </trkpt>
      <trkpt lat="43.78673" lon="6.96866">
        <ele>629.3</ele>
        <time>2009-05-01T11:16:13Z</time>
      </trkpt>
      <trkpt lat="43.78651" lon="6.9691">
        <ele>626.9</ele>
        <time>2009-05-01T11:20:46Z</time>
      </trkpt>
      <trkpt lat="43.78632" lon="6.96939">
        <ele>622.1</ele>
        <time>2009-05-01T11:20:58Z</time>
      </trkpt>
      <trkpt lat="43.78609" lon="6.96967">
        <ele>616.8</ele>
        <time>2009-05-01T11:21:13Z</time>
      </trkpt>
      <trkpt lat="43.7858" lon="6.96985">
        <ele>615.4</ele>
        <time>2009-05-01T11:21:24Z</time>
      </trkpt>
      <trkpt lat="43.78562" lon="6.9702">
        <ele>609.1</ele>
        <time>2009-05-01T11:21:34Z</time>
      </trkpt>
      <trkpt lat="43.78548" lon="6.97057">
        <ele>603.4</ele>
        <time>2009-05-01T11:21:46Z</time>
      </trkpt>
      <trkpt lat="43.78535" lon="6.97091">
        <ele>594.7</ele>
        <time>2009-05-01T11:22:00Z</time>
      </trkpt>
      <trkpt lat="43.78523" lon="6.97124">
        <ele>589.4</ele>
        <time>2009-05-01T11:22:39Z</time>
      </trkpt>
      <trkpt lat="43.78498" lon="6.97145">
        <ele>587</ele>
        <time>2009-05-01T11:23:40Z</time>
      </trkpt>
      <trkpt lat="43.78476" lon="6.97167">
        <ele>581.7</ele>
        <time>2009-05-01T11:23:54Z</time>
      </trkpt>
      <trkpt lat="43.78462" lon="6.97189">
        <ele>568.8</ele>
        <time>2009-05-01T11:24:20Z</time>
      </trkpt>
      <trkpt lat="43.78443" lon="6.97209">
        <ele>561.5</ele>
        <time>2009-05-01T11:25:07Z</time>
      </trkpt>
      <trkpt lat="43.7847" lon="6.97216">
        <ele>553.4</ele>
        <time>2009-05-01T11:25:22Z</time>
      </trkpt>
      <trkpt lat="43.78468" lon="6.97235">
        <ele>544.7</ele>
        <time>2009-05-01T11:26:19Z</time>
      </trkpt>
      <trkpt lat="43.78444" lon="6.97246">
        <ele>536.6</ele>
        <time>2009-05-01T11:26:38Z</time>
      </trkpt>
      <trkpt lat="43.78434" lon="6.97276">
        <ele>530.3</ele>
        <time>2009-05-01T11:27:22Z</time>
      </trkpt>
      <trkpt lat="43.78419" lon="6.97308">
        <ele>527.9</ele>
        <time>2009-05-01T11:27:37Z</time>
      </trkpt>
      <trkpt lat="43.78404" lon="6.97364">
        <ele>525</ele>
        <time>2009-05-01T11:28:48Z</time>
      </trkpt>
      <trkpt lat="43.78408" lon="6.97414">
        <ele>525</ele>
        <time>2009-05-01T11:33:09Z</time>
      </trkpt>
      <trkpt lat="43.78396" lon="6.97416">
        <ele>524.1</ele>
        <time>2009-05-01T11:34:45Z</time>
      </trkpt>
      <trkpt lat="43.78373" lon="6.97416">
        <ele>519.2</ele>
        <time>2009-05-01T11:35:12Z</time>
      </trkpt>
      <trkpt lat="43.78347" lon="6.97426">
        <ele>518.8</ele>
        <time>2009-05-01T11:35:26Z</time>
      </trkpt>
      <trkpt lat="43.78325" lon="6.97449">
        <ele>516.4</ele>
        <time>2009-05-01T11:35:42Z</time>
      </trkpt>
      <trkpt lat="43.78301" lon="6.97448">
        <ele>514</ele>
        <time>2009-05-01T11:36:08Z</time>
      </trkpt>
      <trkpt lat="43.78272" lon="6.97452">
        <ele>517.3</ele>
        <time>2009-05-01T11:37:02Z</time>
      </trkpt>
      <trkpt lat="43.78248" lon="6.97465">
        <ele>517.8</ele>
        <time>2009-05-01T11:37:39Z</time>
      </trkpt>
      <trkpt lat="43.78232" lon="6.97492">
        <ele>516.4</ele>
        <time>2009-05-01T11:38:09Z</time>
      </trkpt>
      <trkpt lat="43.78212" lon="6.97517">
        <ele>515.4</ele>
        <time>2009-05-01T11:38:48Z</time>
      </trkpt>
      <trkpt lat="43.78194" lon="6.97546">
        <ele>519.7</ele>
        <time>2009-05-01T11:41:30Z</time>
      </trkpt>
      <trkpt lat="43.78163" lon="6.97541">
        <ele>515.4</ele>
        <time>2009-05-01T11:47:00Z</time>
      </trkpt>
      <trkpt lat="43.7814" lon="6.97568">
        <ele>513</ele>
        <time>2009-05-01T11:47:12Z</time>
      </trkpt>
      <trkpt lat="43.78114" lon="6.97584">
        <ele>511.6</ele>
        <time>2009-05-01T11:47:23Z</time>
      </trkpt>
      <trkpt lat="43.78088" lon="6.97599">
        <ele>510.1</ele>
        <time>2009-05-01T11:47:46Z</time>
      </trkpt>
      <trkpt lat="43.78061" lon="6.97609">
        <ele>508.7</ele>
        <time>2009-05-01T11:48:03Z</time>
      </trkpt>
      <trkpt lat="43.78035" lon="6.97611">
        <ele>509.2</ele>
        <time>2009-05-01T11:48:18Z</time>
      </trkpt>
      <trkpt lat="43.78008" lon="6.97618">
        <ele>508.7</ele>
        <time>2009-05-01T11:48:33Z</time>
      </trkpt>
      <trkpt lat="43.7798" lon="6.97628">
        <ele>506.8</ele>
        <time>2009-05-01T11:48:47Z</time>
      </trkpt>
      <trkpt lat="43.77953" lon="6.97635">
        <ele>506.3</ele>
        <time>2009-05-01T11:49:02Z</time>
      </trkpt>
      <trkpt lat="43.77925" lon="6.97636">
        <ele>504.8</ele>
        <time>2009-05-01T11:49:21Z</time>
      </trkpt>
      <trkpt lat="43.77899" lon="6.97647">
        <ele>505.3</ele>
        <time>2009-05-01T11:49:32Z</time>
      </trkpt>
      <trkpt lat="43.77873" lon="6.97656">
        <ele>504.8</ele>
        <time>2009-05-01T11:49:45Z</time>
      </trkpt>
      <trkpt lat="43.77844" lon="6.97664">
        <ele>503.4</ele>
        <time>2009-05-01T11:49:58Z</time>
      </trkpt>
      <trkpt lat="43.77816" lon="6.97673">
        <ele>502.4</ele>
        <time>2009-05-01T11:50:12Z</time>
      </trkpt>
      <trkpt lat="43.77784" lon="6.97688">
        <ele>504.8</ele>
        <time>2009-05-01T11:51:00Z</time>
      </trkpt>
      <trkpt lat="43.77761" lon="6.97709">
        <ele>503.4</ele>
        <time>2009-05-01T11:51:13Z</time>
      </trkpt>
      <trkpt lat="43.77742" lon="6.97735">
        <ele>501.9</ele>
        <time>2009-05-01T11:51:34Z</time>
      </trkpt>
      <trkpt lat="43.77723" lon="6.97763">
        <ele>501</ele>
        <time>2009-05-01T11:51:49Z</time>
      </trkpt>
      <trkpt lat="43.77703" lon="6.9779">
        <ele>503.4</ele>
        <time>2009-05-01T11:54:42Z</time>
      </trkpt>
      <trkpt lat="43.77674" lon="6.97819">
        <ele>503.4</ele>
        <time>2009-05-01T11:55:26Z</time>
      </trkpt>
      <trkpt lat="43.77652" lon="6.97845">
        <ele>501.5</ele>
        <time>2009-05-01T11:55:41Z</time>
      </trkpt>
      <trkpt lat="43.77635" lon="6.97874">
        <ele>502.4</ele>
        <time>2009-05-01T11:56:04Z</time>
      </trkpt>
      <trkpt lat="43.7763" lon="6.97911">
        <ele>504.3</ele>
        <time>2009-05-01T11:56:34Z</time>
      </trkpt>
      <trkpt lat="43.77629" lon="6.97886">
        <ele>503.9</ele>
        <time>2009-05-01T11:56:58Z</time>
      </trkpt>
      <trkpt lat="43.77647" lon="6.97857">
        <ele>501.9</ele>
        <time>2009-05-01T11:57:10Z</time>
      </trkpt>
      <trkpt lat="43.77641" lon="6.97822">
        <ele>503.4</ele>
        <time>2009-05-01T11:57:33Z</time>
      </trkpt>
      <trkpt lat="43.77635" lon="6.97784">
        <ele>507.2</ele>
        <time>2009-05-01T11:57:57Z</time>
      </trkpt>
      <trkpt lat="43.7763" lon="6.97749">
        <ele>505.3</ele>
        <time>2009-05-01T11:58:29Z</time>
      </trkpt>
      <trkpt lat="43.77616" lon="6.97718">
        <ele>505.3</ele>
        <time>2009-05-01T11:58:49Z</time>
      </trkpt>
      <trkpt lat="43.77593" lon="6.97681">
        <ele>501.9</ele>
        <time>2009-05-01T11:59:23Z</time>
      </trkpt>
      <trkpt lat="43.77569" lon="6.97664">
        <ele>497.1</ele>
        <time>2009-05-01T11:59:45Z</time>
      </trkpt>
      <trkpt lat="43.77548" lon="6.97611">
        <ele>503.4</ele>
        <time>2009-05-01T12:00:29Z</time>
      </trkpt>
      <trkpt lat="43.77532" lon="6.97572">
        <ele>511.1</ele>
        <time>2009-05-01T12:00:57Z</time>
      </trkpt>
      <trkpt lat="43.77528" lon="6.97561">
        <ele>521.7</ele>
        <time>2009-05-01T12:02:21Z</time>
      </trkpt>
      <trkpt lat="43.77545" lon="6.97595">
        <ele>521.2</ele>
        <time>2009-05-01T12:02:27Z</time>
      </trkpt>
      <trkpt lat="43.77559" lon="6.97634">
        <ele>519.2</ele>
        <time>2009-05-01T12:02:32Z</time>
      </trkpt>
      <trkpt lat="43.77578" lon="6.97666">
        <ele>519.2</ele>
        <time>2009-05-01T12:02:39Z</time>
      </trkpt>
      <trkpt lat="43.77601" lon="6.97696">
        <ele>518.8</ele>
        <time>2009-05-01T12:02:51Z</time>
      </trkpt>
      <trkpt lat="43.77607" lon="6.97652">
        <ele>521.2</ele>
        <time>2009-05-01T12:05:14Z</time>
      </trkpt>
      <trkpt lat="43.77643" lon="6.9758">
        <ele>534.6</ele>
        <time>2009-05-01T12:07:27Z</time>
      </trkpt>
      <trkpt lat="43.77693" lon="6.97503">
        <ele>573.1</ele>
        <time>2009-05-01T12:11:12Z</time>
      </trkpt>
      <trkpt lat="43.77708" lon="6.97427">
        <ele>593.3</ele>
        <time>2009-05-01T12:14:53Z</time>
      </trkpt>
      <trkpt lat="43.77711" lon="6.97369">
        <ele>602.4</ele>
        <time>2009-05-01T12:16:49Z</time>
      </trkpt>
      <trkpt lat="43.77734" lon="6.97334">
        <ele>608.2</ele>
        <time>2009-05-01T12:17:35Z</time>
      </trkpt>
      <trkpt lat="43.77764" lon="6.97325">
        <ele>610.6</ele>
        <time>2009-05-01T12:18:00Z</time>
      </trkpt>
      <trkpt lat="43.77779" lon="6.97279">
        <ele>627.4</ele>
        <time>2009-05-01T12:20:00Z</time>
      </trkpt>
      <trkpt lat="43.7783" lon="6.97248">
        <ele>638.5</ele>
        <time>2009-05-01T12:22:03Z</time>
      </trkpt>
      <trkpt lat="43.77864" lon="6.97175">
        <ele>657.7</ele>
        <time>2009-05-01T12:24:35Z</time>
      </trkpt>
      <trkpt lat="43.77874" lon="6.97123">
        <ele>666.3</ele>
        <time>2009-05-01T12:26:13Z</time>
      </trkpt>
      <trkpt lat="43.77817" lon="6.96984">
        <ele>694.7</ele>
        <time>2009-05-01T12:31:07Z</time>
      </trkpt>
      <trkpt lat="43.77815" lon="6.9693">
        <ele>698.5</ele>
        <time>2009-05-01T12:32:15Z</time>
      </trkpt>
      <trkpt lat="43.77816" lon="6.9689">
        <ele>695.7</ele>
        <time>2009-05-01T12:32:30Z</time>
      </trkpt>
      <trkpt lat="43.77824" lon="6.96853">
        <ele>696.1</ele>
        <time>2009-05-01T12:32:42Z</time>
      </trkpt>
      <trkpt lat="43.77828" lon="6.96814">
        <ele>695.7</ele>
        <time>2009-05-01T12:32:54Z</time>
      </trkpt>
      <trkpt lat="43.77833" lon="6.96773">
        <ele>696.1</ele>
        <time>2009-05-01T12:33:05Z</time>
      </trkpt>
      <trkpt lat="43.77836" lon="6.96734">
        <ele>695.2</ele>
        <time>2009-05-01T12:33:17Z</time>
      </trkpt>
      <trkpt lat="43.77849" lon="6.96696">
        <ele>693.7</ele>
        <time>2009-05-01T12:33:28Z</time>
      </trkpt>
      <trkpt lat="43.77868" lon="6.96662">
        <ele>690.4</ele>
        <time>2009-05-01T12:33:35Z</time>
      </trkpt>
      <trkpt lat="43.77884" lon="6.96632">
        <ele>691.8</ele>
        <time>2009-05-01T12:33:46Z</time>
      </trkpt>
      <trkpt lat="43.77902" lon="6.96602">
        <ele>697.6</ele>
        <time>2009-05-01T12:33:59Z</time>
      </trkpt>
      <trkpt lat="43.77919" lon="6.96573">
        <ele>700.5</ele>
        <time>2009-05-01T12:34:14Z</time>
      </trkpt>
      <trkpt lat="43.77939" lon="6.96547">
        <ele>702.9</ele>
        <time>2009-05-01T12:34:29Z</time>
      </trkpt>
      <trkpt lat="43.77965" lon="6.96525">
        <ele>703.8</ele>
        <time>2009-05-01T12:34:43Z</time>
      </trkpt>
      <trkpt lat="43.77988" lon="6.96502">
        <ele>707.2</ele>
        <time>2009-05-01T12:34:57Z</time>
      </trkpt>
      <trkpt lat="43.78006" lon="6.96477">
        <ele>710.1</ele>
        <time>2009-05-01T12:35:12Z</time>
      </trkpt>
      <trkpt lat="43.7802" lon="6.96441">
        <ele>709.6</ele>
        <time>2009-05-01T12:35:29Z</time>
      </trkpt>
      <trkpt lat="43.78026" lon="6.96405">
        <ele>709.6</ele>
        <time>2009-05-01T12:35:44Z</time>
      </trkpt>
      <trkpt lat="43.78045" lon="6.96372">
        <ele>714.4</ele>
        <time>2009-05-01T12:35:59Z</time>
      </trkpt>
      <trkpt lat="43.78066" lon="6.96346">
        <ele>718.7</ele>
        <time>2009-05-01T12:36:13Z</time>
      </trkpt>
      <trkpt lat="43.78087" lon="6.96323">
        <ele>721.1</ele>
        <time>2009-05-01T12:36:26Z</time>
      </trkpt>
      <trkpt lat="43.78089" lon="6.96282">
        <ele>720.6</ele>
        <time>2009-05-01T12:37:35Z</time>
      </trkpt>
      <trkpt lat="43.78089" lon="6.96243">
        <ele>719.2</ele>
        <time>2009-05-01T12:37:42Z</time>
      </trkpt>
      <trkpt lat="43.78105" lon="6.96213">
        <ele>720.6</ele>
        <time>2009-05-01T12:37:52Z</time>
      </trkpt>
      <trkpt lat="43.78116" lon="6.96178">
        <ele>723</ele>
        <time>2009-05-01T12:38:04Z</time>
      </trkpt>
      <trkpt lat="43.78104" lon="6.96142">
        <ele>726.4</ele>
        <time>2009-05-01T12:38:17Z</time>
      </trkpt>
      <trkpt lat="43.78091" lon="6.96104">
        <ele>723.5</ele>
        <time>2009-05-01T12:38:29Z</time>
      </trkpt>
      <trkpt lat="43.78092" lon="6.96062">
        <ele>719.2</ele>
        <time>2009-05-01T12:38:35Z</time>
      </trkpt>
      <trkpt lat="43.78086" lon="6.96022">
        <ele>712.5</ele>
        <time>2009-05-01T12:38:40Z</time>
      </trkpt>
      <trkpt lat="43.78089" lon="6.95975">
        <ele>712.5</ele>
        <time>2009-05-01T12:38:46Z</time>
      </trkpt>
      <trkpt lat="43.78088" lon="6.95936">
        <ele>711</ele>
        <time>2009-05-01T12:38:51Z</time>
      </trkpt>
      <trkpt lat="43.781" lon="6.95895">
        <ele>716.3</ele>
        <time>2009-05-01T12:38:57Z</time>
      </trkpt>
      <trkpt lat="43.78109" lon="6.95858">
        <ele>721.1</ele>
        <time>2009-05-01T12:39:13Z</time>
      </trkpt>
      <trkpt lat="43.78102" lon="6.95818">
        <ele>717.3</ele>
        <time>2009-05-01T12:39:27Z</time>
      </trkpt>
      <trkpt lat="43.78111" lon="6.95777">
        <ele>723</ele>
        <time>2009-05-01T12:39:40Z</time>
      </trkpt>
      <trkpt lat="43.78128" lon="6.95744">
        <ele>730.3</ele>
        <time>2009-05-01T12:39:55Z</time>
      </trkpt>
      <trkpt lat="43.78149" lon="6.95718">
        <ele>735.1</ele>
        <time>2009-05-01T12:40:10Z</time>
      </trkpt>
      <trkpt lat="43.7817" lon="6.95695">
        <ele>734.6</ele>
        <time>2009-05-01T12:40:26Z</time>
      </trkpt>
      <trkpt lat="43.78194" lon="6.95672">
        <ele>735.1</ele>
        <time>2009-05-01T12:40:45Z</time>
      </trkpt>
      <trkpt lat="43.78222" lon="6.95661">
        <ele>735.1</ele>
        <time>2009-05-01T12:40:55Z</time>
      </trkpt>
      <trkpt lat="43.78252" lon="6.9565">
        <ele>736</ele>
        <time>2009-05-01T12:41:03Z</time>
      </trkpt>
      <trkpt lat="43.78282" lon="6.95656">
        <ele>734.6</ele>
        <time>2009-05-01T12:41:09Z</time>
      </trkpt>
      <trkpt lat="43.78303" lon="6.95686">
        <ele>734.6</ele>
        <time>2009-05-01T12:41:14Z</time>
      </trkpt>
      <trkpt lat="43.7831" lon="6.95731">
        <ele>734.1</ele>
        <time>2009-05-01T12:41:19Z</time>
      </trkpt>
      <trkpt lat="43.78327" lon="6.95768">
        <ele>733.1</ele>
        <time>2009-05-01T12:41:24Z</time>
      </trkpt>
      <trkpt lat="43.78344" lon="6.9581">
        <ele>732.7</ele>
        <time>2009-05-01T12:41:29Z</time>
      </trkpt>
      <trkpt lat="43.78358" lon="6.95846">
        <ele>730.3</ele>
        <time>2009-05-01T12:41:33Z</time>
      </trkpt>
      <trkpt lat="43.78356" lon="6.95887">
        <ele>728.3</ele>
        <time>2009-05-01T12:41:37Z</time>
      </trkpt>
      <trkpt lat="43.78329" lon="6.95908">
        <ele>726.4</ele>
        <time>2009-05-01T12:41:41Z</time>
      </trkpt>
      <trkpt lat="43.78335" lon="6.95938">
        <ele>722.6</ele>
        <time>2009-05-01T12:41:46Z</time>
      </trkpt>
      <trkpt lat="43.78365" lon="6.95943">
        <ele>719.2</ele>
        <time>2009-05-01T12:41:50Z</time>
      </trkpt>
      <trkpt lat="43.78395" lon="6.95927">
        <ele>715.4</ele>
        <time>2009-05-01T12:41:58Z</time>
      </trkpt>
      <trkpt lat="43.78423" lon="6.95911">
        <ele>713</ele>
        <time>2009-05-01T12:42:03Z</time>
      </trkpt>
      <trkpt lat="43.78454" lon="6.95893">
        <ele>712</ele>
        <time>2009-05-01T12:42:08Z</time>
      </trkpt>
      <trkpt lat="43.78484" lon="6.95873">
        <ele>711.5</ele>
        <time>2009-05-01T12:42:13Z</time>
      </trkpt>
      <trkpt lat="43.78508" lon="6.95847">
        <ele>710.1</ele>
        <time>2009-05-01T12:42:17Z</time>
      </trkpt>
      <trkpt lat="43.78529" lon="6.95822">
        <ele>708.1</ele>
        <time>2009-05-01T12:42:21Z</time>
      </trkpt>
      <trkpt lat="43.78552" lon="6.958">
        <ele>706.7</ele>
        <time>2009-05-01T12:42:28Z</time>
      </trkpt>
      <trkpt lat="43.78563" lon="6.95804">
        <ele>702.9</ele>
        <time>2009-05-01T12:42:43Z</time>
      </trkpt>
      <trkpt lat="43.7859" lon="6.95829">
        <ele>699</ele>
        <time>2009-05-01T12:43:48Z</time>
      </trkpt>
      <trkpt lat="43.7861" lon="6.95856">
        <ele>690.4</ele>
        <time>2009-05-01T12:44:00Z</time>
      </trkpt>
      <trkpt lat="43.78636" lon="6.95881">
        <ele>685.1</ele>
        <time>2009-05-01T12:44:11Z</time>
      </trkpt>
      <trkpt lat="43.78659" lon="6.95903">
        <ele>676.9</ele>
        <time>2009-05-01T12:44:44Z</time>
      </trkpt>
      <trkpt lat="43.78679" lon="6.95929">
        <ele>669.2</ele>
        <time>2009-05-01T12:44:58Z</time>
      </trkpt>
      <trkpt lat="43.78701" lon="6.95955">
        <ele>663.9</ele>
        <time>2009-05-01T12:45:12Z</time>
      </trkpt>
      <trkpt lat="43.78725" lon="6.95983">
        <ele>660.1</ele>
        <time>2009-05-01T12:45:27Z</time>
      </trkpt>
      <trkpt lat="43.78747" lon="6.96007">
        <ele>656.2</ele>
        <time>2009-05-01T12:45:41Z</time>
      </trkpt>
      <trkpt lat="43.78768" lon="6.96026">
        <ele>652.4</ele>
        <time>2009-05-01T12:46:55Z</time>
      </trkpt>
      <trkpt lat="43.78785" lon="6.95997">
        <ele>651.4</ele>
        <time>2009-05-01T12:47:25Z</time>
      </trkpt>
      <trkpt lat="43.78783" lon="6.95955">
        <ele>649.5</ele>
        <time>2009-05-01T12:47:31Z</time>
      </trkpt>
      <trkpt lat="43.78761" lon="6.95921">
        <ele>647.1</ele>
        <time>2009-05-01T12:47:36Z</time>
      </trkpt>
      <trkpt lat="43.78741" lon="6.95885">
        <ele>645.7</ele>
        <time>2009-05-01T12:47:40Z</time>
      </trkpt>
      <trkpt lat="43.78718" lon="6.9585">
        <ele>644.2</ele>
        <time>2009-05-01T12:47:44Z</time>
      </trkpt>
      <trkpt lat="43.78698" lon="6.95824">
        <ele>642.3</ele>
        <time>2009-05-01T12:47:47Z</time>
      </trkpt>
      <trkpt lat="43.7868" lon="6.95793">
        <ele>641.3</ele>
        <time>2009-05-01T12:47:50Z</time>
      </trkpt>
      <trkpt lat="43.78669" lon="6.95756">
        <ele>638.9</ele>
        <time>2009-05-01T12:47:53Z</time>
      </trkpt>
      <trkpt lat="43.78659" lon="6.95718">
        <ele>638</ele>
        <time>2009-05-01T12:47:56Z</time>
      </trkpt>
      <trkpt lat="43.7867" lon="6.95668">
        <ele>636</ele>
        <time>2009-05-01T12:48:00Z</time>
      </trkpt>
      <trkpt lat="43.78689" lon="6.95618">
        <ele>634.1</ele>
        <time>2009-05-01T12:48:04Z</time>
      </trkpt>
      <trkpt lat="43.78696" lon="6.95579">
        <ele>632.2</ele>
        <time>2009-05-01T12:48:07Z</time>
      </trkpt>
      <trkpt lat="43.78705" lon="6.95541">
        <ele>629.3</ele>
        <time>2009-05-01T12:48:10Z</time>
      </trkpt>
      <trkpt lat="43.78728" lon="6.95521">
        <ele>628.4</ele>
        <time>2009-05-01T12:48:13Z</time>
      </trkpt>
      <trkpt lat="43.78755" lon="6.95493">
        <ele>624.5</ele>
        <time>2009-05-01T12:48:17Z</time>
      </trkpt>
      <trkpt lat="43.78753" lon="6.95448">
        <ele>622.6</ele>
        <time>2009-05-01T12:48:21Z</time>
      </trkpt>
      <trkpt lat="43.78735" lon="6.95418">
        <ele>621.1</ele>
        <time>2009-05-01T12:48:24Z</time>
      </trkpt>
      <trkpt lat="43.78719" lon="6.95383">
        <ele>619.2</ele>
        <time>2009-05-01T12:48:27Z</time>
      </trkpt>
      <trkpt lat="43.78708" lon="6.95344">
        <ele>616.8</ele>
        <time>2009-05-01T12:48:30Z</time>
      </trkpt>
      <trkpt lat="43.78715" lon="6.95305">
        <ele>613.9</ele>
        <time>2009-05-01T12:48:33Z</time>
      </trkpt>
      <trkpt lat="43.78735" lon="6.95271">
        <ele>613.5</ele>
        <time>2009-05-01T12:48:36Z</time>
      </trkpt>
      <trkpt lat="43.78765" lon="6.95247">
        <ele>614.4</ele>
        <time>2009-05-01T12:48:39Z</time>
      </trkpt>
      <trkpt lat="43.78792" lon="6.95226">
        <ele>610.6</ele>
        <time>2009-05-01T12:48:42Z</time>
      </trkpt>
      <trkpt lat="43.78811" lon="6.95191">
        <ele>608.7</ele>
        <time>2009-05-01T12:48:45Z</time>
      </trkpt>
      <trkpt lat="43.78812" lon="6.95149">
        <ele>606.2</ele>
        <time>2009-05-01T12:48:48Z</time>
      </trkpt>
      <trkpt lat="43.78797" lon="6.95107">
        <ele>603.4</ele>
        <time>2009-05-01T12:48:51Z</time>
      </trkpt>
      <trkpt lat="43.78787" lon="6.95063">
        <ele>601.4</ele>
        <time>2009-05-01T12:48:54Z</time>
      </trkpt>
      <trkpt lat="43.78801" lon="6.95029">
        <ele>599</ele>
        <time>2009-05-01T12:48:57Z</time>
      </trkpt>
      <trkpt lat="43.78823" lon="6.95002">
        <ele>596.6</ele>
        <time>2009-05-01T12:49:00Z</time>
      </trkpt>
      <trkpt lat="43.78817" lon="6.94962">
        <ele>594.7</ele>
        <time>2009-05-01T12:49:03Z</time>
      </trkpt>
      <trkpt lat="43.78823" lon="6.94928">
        <ele>593.3</ele>
        <time>2009-05-01T12:49:06Z</time>
      </trkpt>
      <trkpt lat="43.78845" lon="6.94901">
        <ele>592.3</ele>
        <time>2009-05-01T12:49:09Z</time>
      </trkpt>
      <trkpt lat="43.78858" lon="6.94874">
        <ele>590.9</ele>
        <time>2009-05-01T12:49:14Z</time>
      </trkpt>
      <trkpt lat="43.78847" lon="6.94908">
        <ele>593.8</ele>
        <time>2009-05-01T12:49:26Z</time>
      </trkpt>
      <trkpt lat="43.78865" lon="6.94928">
        <ele>588</ele>
        <time>2009-05-01T12:49:45Z</time>
      </trkpt>
      <trkpt lat="43.78887" lon="6.9491">
        <ele>582.2</ele>
        <time>2009-05-01T12:50:23Z</time>
      </trkpt>
      <trkpt lat="43.78907" lon="6.94887">
        <ele>576</ele>
        <time>2009-05-01T12:50:59Z</time>
      </trkpt>
      <trkpt lat="43.78934" lon="6.949">
        <ele>576.9</ele>
        <time>2009-05-01T12:51:11Z</time>
      </trkpt>
      <trkpt lat="43.78941" lon="6.94941">
        <ele>580.3</ele>
        <time>2009-05-01T12:51:22Z</time>
      </trkpt>
      <trkpt lat="43.78944" lon="6.9498">
        <ele>582.7</ele>
        <time>2009-05-01T12:51:31Z</time>
      </trkpt>
      <trkpt lat="43.78943" lon="6.95018">
        <ele>582.7</ele>
        <time>2009-05-01T12:51:39Z</time>
      </trkpt>
      <trkpt lat="43.78941" lon="6.95059">
        <ele>582.7</ele>
        <time>2009-05-01T12:51:48Z</time>
      </trkpt>
      <trkpt lat="43.78943" lon="6.95107">
        <ele>577.9</ele>
        <time>2009-05-01T12:51:57Z</time>
      </trkpt>
      <trkpt lat="43.78954" lon="6.95149">
        <ele>572.1</ele>
        <time>2009-05-01T12:52:06Z</time>
      </trkpt>
      <trkpt lat="43.78971" lon="6.95182">
        <ele>570.2</ele>
        <time>2009-05-01T12:52:15Z</time>
      </trkpt>
      <trkpt lat="43.78991" lon="6.95213">
        <ele>568.3</ele>
        <time>2009-05-01T12:52:26Z</time>
      </trkpt>
      <trkpt lat="43.79002" lon="6.95251">
        <ele>571.6</ele>
        <time>2009-05-01T12:52:36Z</time>
      </trkpt>
      <trkpt lat="43.79011" lon="6.95287">
        <ele>573.6</ele>
        <time>2009-05-01T12:52:45Z</time>
      </trkpt>
      <trkpt lat="43.79026" lon="6.95318">
        <ele>574</ele>
        <time>2009-05-01T12:52:56Z</time>
      </trkpt>
      <trkpt lat="43.79039" lon="6.95356">
        <ele>576.4</ele>
        <time>2009-05-01T12:53:07Z</time>
      </trkpt>
      <trkpt lat="43.79048" lon="6.95392">
        <ele>581.3</ele>
        <time>2009-05-01T12:53:18Z</time>
      </trkpt>
      <trkpt lat="43.7905" lon="6.95432">
        <ele>588.9</ele>
        <time>2009-05-01T12:53:30Z</time>
      </trkpt>
      <trkpt lat="43.79066" lon="6.95471">
        <ele>586.1</ele>
        <time>2009-05-01T12:53:41Z</time>
      </trkpt>
      <trkpt lat="43.79088" lon="6.95496">
        <ele>588</ele>
        <time>2009-05-01T12:53:51Z</time>
      </trkpt>
      <trkpt lat="43.791" lon="6.95535">
        <ele>591.8</ele>
        <time>2009-05-01T12:54:03Z</time>
      </trkpt>
      <trkpt lat="43.7911" lon="6.95575">
        <ele>593.8</ele>
        <time>2009-05-01T12:54:15Z</time>
      </trkpt>
      <trkpt lat="43.7913" lon="6.95591">
        <ele>597.6</ele>
        <time>2009-05-01T12:54:28Z</time>
      </trkpt>
      <trkpt lat="43.79124" lon="6.95547">
        <ele>602.9</ele>
        <time>2009-05-01T12:54:40Z</time>
      </trkpt>
      <trkpt lat="43.79124" lon="6.95507">
        <ele>605.8</ele>
        <time>2009-05-01T12:54:53Z</time>
      </trkpt>
      <trkpt lat="43.79115" lon="6.95466">
        <ele>604.8</ele>
        <time>2009-05-01T12:55:06Z</time>
      </trkpt>
      <trkpt lat="43.79101" lon="6.95433">
        <ele>604.8</ele>
        <time>2009-05-01T12:55:18Z</time>
      </trkpt>
      <trkpt lat="43.79103" lon="6.95396">
        <ele>602.9</ele>
        <time>2009-05-01T12:55:30Z</time>
      </trkpt>
      <trkpt lat="43.79115" lon="6.9536">
        <ele>604.8</ele>
        <time>2009-05-01T12:55:42Z</time>
      </trkpt>
      <trkpt lat="43.79109" lon="6.95326">
        <ele>605.8</ele>
        <time>2009-05-01T12:55:54Z</time>
      </trkpt>
      <trkpt lat="43.79089" lon="6.95298">
        <ele>607.2</ele>
        <time>2009-05-01T12:56:05Z</time>
      </trkpt>
      <trkpt lat="43.79084" lon="6.95257">
        <ele>610.1</ele>
        <time>2009-05-01T12:56:15Z</time>
      </trkpt>
      <trkpt lat="43.79075" lon="6.95219">
        <ele>613</ele>
        <time>2009-05-01T12:56:25Z</time>
      </trkpt>
      <trkpt lat="43.79071" lon="6.95177">
        <ele>614.4</ele>
        <time>2009-05-01T12:56:36Z</time>
      </trkpt>
      <trkpt lat="43.79068" lon="6.95133">
        <ele>617.8</ele>
        <time>2009-05-01T12:56:47Z</time>
      </trkpt>
      <trkpt lat="43.79062" lon="6.95087">
        <ele>618.7</ele>
        <time>2009-05-01T12:56:57Z</time>
      </trkpt>
      <trkpt lat="43.79068" lon="6.95047">
        <ele>620.2</ele>
        <time>2009-05-01T12:57:07Z</time>
      </trkpt>
      <trkpt lat="43.79077" lon="6.95008">
        <ele>620.2</ele>
        <time>2009-05-01T12:57:17Z</time>
      </trkpt>
      <trkpt lat="43.7908" lon="6.94961">
        <ele>623.6</ele>
        <time>2009-05-01T12:57:28Z</time>
      </trkpt>
      <trkpt lat="43.79068" lon="6.94921">
        <ele>619.7</ele>
        <time>2009-05-01T12:57:39Z</time>
      </trkpt>
      <trkpt lat="43.79063" lon="6.94882">
        <ele>616.8</ele>
        <time>2009-05-01T12:57:51Z</time>
      </trkpt>
      <trkpt lat="43.7908" lon="6.94853">
        <ele>619.7</ele>
        <time>2009-05-01T12:58:03Z</time>
      </trkpt>
      <trkpt lat="43.79095" lon="6.94819">
        <ele>621.6</ele>
        <time>2009-05-01T12:58:16Z</time>
      </trkpt>
      <trkpt lat="43.79108" lon="6.94779">
        <ele>623.1</ele>
        <time>2009-05-01T12:58:29Z</time>
      </trkpt>
      <trkpt lat="43.79109" lon="6.94733">
        <ele>627.4</ele>
        <time>2009-05-01T12:58:42Z</time>
      </trkpt>
      <trkpt lat="43.79096" lon="6.94695">
        <ele>627.9</ele>
        <time>2009-05-01T12:58:54Z</time>
      </trkpt>
      <trkpt lat="43.79077" lon="6.94663">
        <ele>629.3</ele>
        <time>2009-05-01T12:59:06Z</time>
      </trkpt>
      <trkpt lat="43.79067" lon="6.94626">
        <ele>633.6</ele>
        <time>2009-05-01T12:59:19Z</time>
      </trkpt>
      <trkpt lat="43.79076" lon="6.94583">
        <ele>637.5</ele>
        <time>2009-05-01T12:59:32Z</time>
      </trkpt>
      <trkpt lat="43.79084" lon="6.94544">
        <ele>637.5</ele>
        <time>2009-05-01T12:59:44Z</time>
      </trkpt>
      <trkpt lat="43.79095" lon="6.94501">
        <ele>641.8</ele>
        <time>2009-05-01T12:59:56Z</time>
      </trkpt>
      <trkpt lat="43.79096" lon="6.94462">
        <ele>644.7</ele>
        <time>2009-05-01T13:00:08Z</time>
      </trkpt>
      <trkpt lat="43.79104" lon="6.94423">
        <ele>645.2</ele>
        <time>2009-05-01T13:00:20Z</time>
      </trkpt>
      <trkpt lat="43.79116" lon="6.94387">
        <ele>645.7</ele>
        <time>2009-05-01T13:00:32Z</time>
      </trkpt>
      <trkpt lat="43.79135" lon="6.94358">
        <ele>647.1</ele>
        <time>2009-05-01T13:00:44Z</time>
      </trkpt>
      <trkpt lat="43.79153" lon="6.94329">
        <ele>649</ele>
        <time>2009-05-01T13:00:56Z</time>
      </trkpt>
      <trkpt lat="43.79151" lon="6.94288">
        <ele>653.8</ele>
        <time>2009-05-01T13:01:10Z</time>
      </trkpt>
      <trkpt lat="43.79164" lon="6.94301">
        <ele>656.7</ele>
        <time>2009-05-01T13:01:23Z</time>
      </trkpt>
      <trkpt lat="43.79167" lon="6.94343">
        <ele>656.7</ele>
        <time>2009-05-01T13:01:37Z</time>
      </trkpt>
      <trkpt lat="43.7916" lon="6.94385">
        <ele>660.6</ele>
        <time>2009-05-01T13:01:52Z</time>
      </trkpt>
      <trkpt lat="43.79158" lon="6.94426">
        <ele>664.9</ele>
        <time>2009-05-01T13:02:05Z</time>
      </trkpt>
      <trkpt lat="43.79157" lon="6.94467">
        <ele>666.3</ele>
        <time>2009-05-01T13:02:18Z</time>
      </trkpt>
      <trkpt lat="43.79159" lon="6.94508">
        <ele>666.3</ele>
        <time>2009-05-01T13:02:31Z</time>
      </trkpt>
      <trkpt lat="43.79161" lon="6.94552">
        <ele>667.8</ele>
        <time>2009-05-01T13:02:45Z</time>
      </trkpt>
      <trkpt lat="43.79162" lon="6.94588">
        <ele>671.1</ele>
        <time>2009-05-01T13:02:58Z</time>
      </trkpt>
      <trkpt lat="43.79171" lon="6.9463">
        <ele>677.4</ele>
        <time>2009-05-01T13:03:12Z</time>
      </trkpt>
      <trkpt lat="43.79179" lon="6.94669">
        <ele>677.4</ele>
        <time>2009-05-01T13:03:25Z</time>
      </trkpt>
      <trkpt lat="43.79196" lon="6.94697">
        <ele>679.3</ele>
        <time>2009-05-01T13:03:38Z</time>
      </trkpt>
      <trkpt lat="43.79224" lon="6.94706">
        <ele>681.7</ele>
        <time>2009-05-01T13:03:51Z</time>
      </trkpt>
      <trkpt lat="43.79228" lon="6.94743">
        <ele>686</ele>
        <time>2009-05-01T13:04:06Z</time>
      </trkpt>
      <trkpt lat="43.79212" lon="6.94795">
        <ele>685.1</ele>
        <time>2009-05-01T13:04:20Z</time>
      </trkpt>
      <trkpt lat="43.79218" lon="6.94835">
        <ele>685.1</ele>
        <time>2009-05-01T13:04:32Z</time>
      </trkpt>
      <trkpt lat="43.79235" lon="6.94865">
        <ele>685.6</ele>
        <time>2009-05-01T13:04:44Z</time>
      </trkpt>
      <trkpt lat="43.79253" lon="6.94897">
        <ele>687</ele>
        <time>2009-05-01T13:04:56Z</time>
      </trkpt>
      <trkpt lat="43.79266" lon="6.94932">
        <ele>690.4</ele>
        <time>2009-05-01T13:05:07Z</time>
      </trkpt>
      <trkpt lat="43.7928" lon="6.94967">
        <ele>689.9</ele>
        <time>2009-05-01T13:05:20Z</time>
      </trkpt>
      <trkpt lat="43.79295" lon="6.95002">
        <ele>691.8</ele>
        <time>2009-05-01T13:05:33Z</time>
      </trkpt>
      <trkpt lat="43.79306" lon="6.95041">
        <ele>691.8</ele>
        <time>2009-05-01T13:05:46Z</time>
      </trkpt>
      <trkpt lat="43.79316" lon="6.95078">
        <ele>693.2</ele>
        <time>2009-05-01T13:05:58Z</time>
      </trkpt>
      <trkpt lat="43.79326" lon="6.95114">
        <ele>691.8</ele>
        <time>2009-05-01T13:06:09Z</time>
      </trkpt>
      <trkpt lat="43.79337" lon="6.9515">
        <ele>691.8</ele>
        <time>2009-05-01T13:06:20Z</time>
      </trkpt>
      <trkpt lat="43.7934" lon="6.95189">
        <ele>694.2</ele>
        <time>2009-05-01T13:06:31Z</time>
      </trkpt>
      <trkpt lat="43.79338" lon="6.95229">
        <ele>697.6</ele>
        <time>2009-05-01T13:06:42Z</time>
      </trkpt>
      <trkpt lat="43.7934" lon="6.95269">
        <ele>700</ele>
        <time>2009-05-01T13:06:53Z</time>
      </trkpt>
      <trkpt lat="43.79349" lon="6.95306">
        <ele>702.4</ele>
        <time>2009-05-01T13:07:04Z</time>
      </trkpt>
      <trkpt lat="43.79364" lon="6.95341">
        <ele>702.4</ele>
        <time>2009-05-01T13:07:15Z</time>
      </trkpt>
      <trkpt lat="43.79381" lon="6.95372">
        <ele>705.7</ele>
        <time>2009-05-01T13:07:26Z</time>
      </trkpt>
      <trkpt lat="43.79403" lon="6.95396">
        <ele>705.7</ele>
        <time>2009-05-01T13:07:37Z</time>
      </trkpt>
      <trkpt lat="43.79429" lon="6.95411">
        <ele>706.7</ele>
        <time>2009-05-01T13:07:48Z</time>
      </trkpt>
      <trkpt lat="43.79458" lon="6.9541">
        <ele>708.1</ele>
        <time>2009-05-01T13:07:59Z</time>
      </trkpt>
      <trkpt lat="43.79482" lon="6.95416">
        <ele>713.9</ele>
        <time>2009-05-01T13:08:10Z</time>
      </trkpt>
      <trkpt lat="43.79505" lon="6.95436">
        <ele>711</ele>
        <time>2009-05-01T13:08:21Z</time>
      </trkpt>
      <trkpt lat="43.7953" lon="6.95454">
        <ele>712</ele>
        <time>2009-05-01T13:08:32Z</time>
      </trkpt>
      <trkpt lat="43.79551" lon="6.9548">
        <ele>713</ele>
        <time>2009-05-01T13:08:44Z</time>
      </trkpt>
      <trkpt lat="43.79579" lon="6.95497">
        <ele>712</ele>
        <time>2009-05-01T13:08:57Z</time>
      </trkpt>
      <trkpt lat="43.79604" lon="6.95515">
        <ele>712.5</ele>
        <time>2009-05-01T13:09:08Z</time>
      </trkpt>
      <trkpt lat="43.79621" lon="6.95549">
        <ele>713.4</ele>
        <time>2009-05-01T13:09:19Z</time>
      </trkpt>
      <trkpt lat="43.79632" lon="6.95584">
        <ele>717.3</ele>
        <time>2009-05-01T13:09:30Z</time>
      </trkpt>
      <trkpt lat="43.79636" lon="6.95619">
        <ele>719.7</ele>
        <time>2009-05-01T13:09:42Z</time>
      </trkpt>
      <trkpt lat="43.79631" lon="6.95656">
        <ele>723</ele>
        <time>2009-05-01T13:09:54Z</time>
      </trkpt>
      <trkpt lat="43.79624" lon="6.95695">
        <ele>725</ele>
        <time>2009-05-01T13:10:07Z</time>
      </trkpt>
      <trkpt lat="43.79619" lon="6.95733">
        <ele>726.9</ele>
        <time>2009-05-01T13:10:19Z</time>
      </trkpt>
      <trkpt lat="43.79617" lon="6.95771">
        <ele>728.8</ele>
        <time>2009-05-01T13:10:31Z</time>
      </trkpt>
      <trkpt lat="43.79633" lon="6.95762">
        <ele>729.8</ele>
        <time>2009-05-01T13:10:44Z</time>
      </trkpt>
      <trkpt lat="43.7964" lon="6.95724">
        <ele>731.7</ele>
        <time>2009-05-01T13:10:55Z</time>
      </trkpt>
      <trkpt lat="43.79652" lon="6.95688">
        <ele>734.1</ele>
        <time>2009-05-01T13:11:05Z</time>
      </trkpt>
      <trkpt lat="43.79662" lon="6.95651">
        <ele>736.5</ele>
        <time>2009-05-01T13:11:15Z</time>
      </trkpt>
      <trkpt lat="43.79668" lon="6.95612">
        <ele>739.4</ele>
        <time>2009-05-01T13:11:25Z</time>
      </trkpt>
      <trkpt lat="43.79672" lon="6.95574">
        <ele>739.4</ele>
        <time>2009-05-01T13:11:35Z</time>
      </trkpt>
      <trkpt lat="43.79667" lon="6.95533">
        <ele>742.8</ele>
        <time>2009-05-01T13:11:46Z</time>
      </trkpt>
      <trkpt lat="43.79659" lon="6.95497">
        <ele>743.2</ele>
        <time>2009-05-01T13:11:57Z</time>
      </trkpt>
      <trkpt lat="43.79649" lon="6.95459">
        <ele>742.8</ele>
        <time>2009-05-01T13:12:08Z</time>
      </trkpt>
      <trkpt lat="43.79636" lon="6.95422">
        <ele>744.7</ele>
        <time>2009-05-01T13:12:20Z</time>
      </trkpt>
      <trkpt lat="43.7962" lon="6.95388">
        <ele>749.5</ele>
        <time>2009-05-01T13:12:32Z</time>
      </trkpt>
      <trkpt lat="43.79609" lon="6.9535">
        <ele>753.8</ele>
        <time>2009-05-01T13:12:44Z</time>
      </trkpt>
      <trkpt lat="43.796" lon="6.9531">
        <ele>756.2</ele>
        <time>2009-05-01T13:12:56Z</time>
      </trkpt>
      <trkpt lat="43.79589" lon="6.95275">
        <ele>753.3</ele>
        <time>2009-05-01T13:13:08Z</time>
      </trkpt>
      <trkpt lat="43.79574" lon="6.95243">
        <ele>753.8</ele>
        <time>2009-05-01T13:13:19Z</time>
      </trkpt>
      <trkpt lat="43.79587" lon="6.95244">
        <ele>755.3</ele>
        <time>2009-05-01T13:13:31Z</time>
      </trkpt>
      <trkpt lat="43.79603" lon="6.95278">
        <ele>758.1</ele>
        <time>2009-05-01T13:13:43Z</time>
      </trkpt>
      <trkpt lat="43.79619" lon="6.95314">
        <ele>764.4</ele>
        <time>2009-05-01T13:13:55Z</time>
      </trkpt>
      <trkpt lat="43.79633" lon="6.9535">
        <ele>767.8</ele>
        <time>2009-05-01T13:14:07Z</time>
      </trkpt>
      <trkpt lat="43.79649" lon="6.95381">
        <ele>771.6</ele>
        <time>2009-05-01T13:14:19Z</time>
      </trkpt>
      <trkpt lat="43.7967" lon="6.9541">
        <ele>770.6</ele>
        <time>2009-05-01T13:14:31Z</time>
      </trkpt>
      <trkpt lat="43.79689" lon="6.95441">
        <ele>770.6</ele>
        <time>2009-05-01T13:14:44Z</time>
      </trkpt>
      <trkpt lat="43.79701" lon="6.95476">
        <ele>773</ele>
        <time>2009-05-01T13:14:57Z</time>
      </trkpt>
      <trkpt lat="43.79713" lon="6.95464">
        <ele>775.9</ele>
        <time>2009-05-01T13:15:10Z</time>
      </trkpt>
      <trkpt lat="43.79699" lon="6.95429">
        <ele>773.5</ele>
        <time>2009-05-01T13:15:22Z</time>
      </trkpt>
      <trkpt lat="43.79683" lon="6.95397">
        <ele>774</ele>
        <time>2009-05-01T13:15:33Z</time>
      </trkpt>
      <trkpt lat="43.79669" lon="6.95359">
        <ele>776.9</ele>
        <time>2009-05-01T13:15:44Z</time>
      </trkpt>
      <trkpt lat="43.79664" lon="6.95322">
        <ele>778.8</ele>
        <time>2009-05-01T13:15:54Z</time>
      </trkpt>
      <trkpt lat="43.79656" lon="6.95285">
        <ele>781.2</ele>
        <time>2009-05-01T13:16:04Z</time>
      </trkpt>
      <trkpt lat="43.79651" lon="6.95248">
        <ele>785.5</ele>
        <time>2009-05-01T13:16:14Z</time>
      </trkpt>
      <trkpt lat="43.79658" lon="6.95213">
        <ele>790.3</ele>
        <time>2009-05-01T13:16:25Z</time>
      </trkpt>
      <trkpt lat="43.79666" lon="6.95178">
        <ele>795.1</ele>
        <time>2009-05-01T13:16:36Z</time>
      </trkpt>
      <trkpt lat="43.79668" lon="6.9514">
        <ele>797.1</ele>
        <time>2009-05-01T13:16:47Z</time>
      </trkpt>
      <trkpt lat="43.79669" lon="6.95101">
        <ele>795.1</ele>
        <time>2009-05-01T13:16:57Z</time>
      </trkpt>
      <trkpt lat="43.79669" lon="6.95064">
        <ele>795.1</ele>
        <time>2009-05-01T13:17:07Z</time>
      </trkpt>
      <trkpt lat="43.79669" lon="6.95023">
        <ele>795.6</ele>
        <time>2009-05-01T13:17:18Z</time>
      </trkpt>
      <trkpt lat="43.79669" lon="6.94983">
        <ele>799.5</ele>
        <time>2009-05-01T13:17:29Z</time>
      </trkpt>
      <trkpt lat="43.79675" lon="6.94945">
        <ele>802.8</ele>
        <time>2009-05-01T13:17:40Z</time>
      </trkpt>
      <trkpt lat="43.79679" lon="6.94904">
        <ele>805.2</ele>
        <time>2009-05-01T13:17:51Z</time>
      </trkpt>
      <trkpt lat="43.79677" lon="6.94865">
        <ele>804.8</ele>
        <time>2009-05-01T13:18:02Z</time>
      </trkpt>
      <trkpt lat="43.79672" lon="6.94822">
        <ele>805.2</ele>
        <time>2009-05-01T13:18:14Z</time>
      </trkpt>
      <trkpt lat="43.79657" lon="6.94789">
        <ele>808.1</ele>
        <time>2009-05-01T13:18:31Z</time>
      </trkpt>
      <trkpt lat="43.7965" lon="6.94752">
        <ele>805.2</ele>
        <time>2009-05-01T13:18:45Z</time>
      </trkpt>
      <trkpt lat="43.79637" lon="6.94714">
        <ele>805.2</ele>
        <time>2009-05-01T13:19:02Z</time>
      </trkpt>
      <trkpt lat="43.79633" lon="6.94714">
        <ele>806.7</ele>
        <time>2009-05-01T13:22:45Z</time>
      </trkpt>
    </trkseg>
  </trk>
</gpx>